sensor_id;sensor_type;location;lat;lon;timestamp;pressure;altitude;pressure_sealevel;temperature;humidity
57050;BME280;42935;50.966;16.992;2023-05-25T00:02:09;102157.07;;;7.94;100.00
57050;BME280;42935;50.966;16.992;2023-05-25T00:05:29;102147.02;;;8.00;100.00
57050;BME280;42935;50.966;16.992;2023-05-25T00:08:48;102138.42;;;7.84;100.00
57050;BME280;42935;50.966;16.992;2023-05-25T00:12:10;102144.08;;;7.86;100.00
57050;BME280;42935;50.966;16.992;2023-05-25T00:15:27;102138.83;;;7.74;100.00
57050;BME280;42935;50.966;16.992;2023-05-25T00:19:21;102148.05;;;7.84;100.00
57050;BME280;42935;50.966;16.992;2023-05-25T00:22:39;102147.50;;;7.65;100.00
57050;BME280;42935;50.966;16.992;2023-05-25T00:26:03;102148.34;;;7.77;100.00
57050;BME280;42935;50.966;16.992;2023-05-25T00:29:20;102152.89;;;7.58;100.00
57050;BME280;42935;50.966;16.992;2023-05-25T00:32:38;102144.98;;;7.42;100.00
57050;BME280;42935;50.966;16.992;2023-05-25T00:35:56;102144.55;;;7.47;100.00
57050;BME280;42935;50.966;16.992;2023-05-25T00:39:18;102155.59;;;7.35;100.00
57050;BME280;42935;50.966;16.992;2023-05-25T00:42:38;102154.48;;;7.26;100.00
57050;BME280;42935;50.966;16.992;2023-05-25T00:45:51;102158.52;;;7.30;100.00
57050;BME280;42935;50.966;16.992;2023-05-25T00:49:05;102157.65;;;7.25;100.00
57050;BME280;42935;50.966;16.992;2023-05-25T00:52:18;102171.38;;;7.27;100.00
57050;BME280;42935;50.966;16.992;2023-05-25T00:56:16;102160.54;;;7.20;100.00
57050;BME280;42935;50.966;16.992;2023-05-25T00:59:41;102171.09;;;7.34;100.00
57050;BME280;42935;50.966;16.992;2023-05-25T01:03:05;102166.99;;;7.44;100.00
57050;BME280;42935;50.966;16.992;2023-05-25T01:06:29;102174.46;;;7.47;100.00
57050;BME280;42935;50.966;16.992;2023-05-25T01:09:49;102175.02;;;7.63;100.00
57050;BME280;42935;50.966;16.992;2023-05-25T01:13:08;102179.20;;;7.54;100.00
57050;BME280;42935;50.966;16.992;2023-05-25T01:16:30;102176.17;;;7.55;100.00
57050;BME280;42935;50.966;16.992;2023-05-25T01:19:47;102174.45;;;7.56;100.00
57050;BME280;42935;50.966;16.992;2023-05-25T01:23:14;102180.10;;;7.39;100.00
57050;BME280;42935;50.966;16.992;2023-05-25T01:26:41;102178.33;;;7.52;100.00
57050;BME280;42935;50.966;16.992;2023-05-25T01:29:58;102175.85;;;7.28;100.00
57050;BME280;42935;50.966;16.992;2023-05-25T01:33:18;102171.06;;;7.26;100.00
57050;BME280;42935;50.966;16.992;2023-05-25T01:36:35;102183.30;;;7.32;100.00
57050;BME280;42935;50.966;16.992;2023-05-25T01:39:49;102186.58;;;7.30;100.00
57050;BME280;42935;50.966;16.992;2023-05-25T01:43:03;102195.55;;;7.32;100.00
57050;BME280;42935;50.966;16.992;2023-05-25T01:50:09;102199.77;;;7.13;100.00
57050;BME280;42935;50.966;16.992;2023-05-25T01:53:29;102192.37;;;6.96;100.00
57050;BME280;42935;50.966;16.992;2023-05-25T01:56:45;102189.86;;;6.75;100.00
57050;BME280;42935;50.966;16.992;2023-05-25T02:00:09;102187.29;;;6.82;100.00
57050;BME280;42935;50.966;16.992;2023-05-25T02:03:32;102188.20;;;6.98;100.00
57050;BME280;42935;50.966;16.992;2023-05-25T02:06:49;102197.46;;;7.10;100.00
57050;BME280;42935;50.966;16.992;2023-05-25T02:10:08;102186.53;;;7.03;100.00
57050;BME280;42935;50.966;16.992;2023-05-25T02:13:26;102192.21;;;7.20;100.00
57050;BME280;42935;50.966;16.992;2023-05-25T02:16:39;102196.31;;;7.10;100.00
57050;BME280;42935;50.966;16.992;2023-05-25T02:19:52;102194.59;;;7.13;100.00
57050;BME280;42935;50.966;16.992;2023-05-25T02:23:12;102184.32;;;7.00;100.00
57050;BME280;42935;50.966;16.992;2023-05-25T02:26:28;102193.56;;;7.07;100.00
57050;BME280;42935;50.966;16.992;2023-05-25T02:29:44;102188.78;;;6.88;100.00
57050;BME280;42935;50.966;16.992;2023-05-25T02:33:01;102193.83;;;6.98;100.00
57050;BME280;42935;50.966;16.992;2023-05-25T02:36:24;102193.79;;;6.80;100.00
57050;BME280;42935;50.966;16.992;2023-05-25T02:39:40;102199.04;;;6.72;100.00
57050;BME280;42935;50.966;16.992;2023-05-25T02:42:58;102195.08;;;6.73;100.00
57050;BME280;42935;50.966;16.992;2023-05-25T02:46:17;102198.02;;;6.91;100.00
57050;BME280;42935;50.966;16.992;2023-05-25T02:49:34;102202.32;;;6.77;100.00
57050;BME280;42935;50.966;16.992;2023-05-25T02:52:55;102204.18;;;6.74;100.00
57050;BME280;42935;50.966;16.992;2023-05-25T02:56:15;102168.95;;;6.38;100.00
57050;BME280;42935;50.966;16.992;2023-05-25T02:59:32;102210.25;;;6.38;100.00
57050;BME280;42935;50.966;16.992;2023-05-25T03:02:52;102200.17;;;6.24;100.00
57050;BME280;42935;50.966;16.992;2023-05-25T03:06:10;102211.61;;;6.00;100.00
57050;BME280;42935;50.966;16.992;2023-05-25T03:09:24;102214.85;;;5.95;100.00
57050;BME280;42935;50.966;16.992;2023-05-25T03:12:36;102215.94;;;5.96;100.00
57050;BME280;42935;50.966;16.992;2023-05-25T03:15:54;102214.21;;;5.86;100.00
57050;BME280;42935;50.966;16.992;2023-05-25T03:19:15;102217.61;;;5.85;100.00
57050;BME280;42935;50.966;16.992;2023-05-25T03:22:35;102228.63;;;5.88;100.00
57050;BME280;42935;50.966;16.992;2023-05-25T03:25:50;102233.34;;;5.93;100.00
57050;BME280;42935;50.966;16.992;2023-05-25T03:29:06;102235.24;;;6.03;100.00
57050;BME280;42935;50.966;16.992;2023-05-25T03:32:21;102237.34;;;6.26;100.00
57050;BME280;42935;50.966;16.992;2023-05-25T03:35:37;102233.50;;;6.20;100.00
57050;BME280;42935;50.966;16.992;2023-05-25T03:38:54;102239.52;;;6.27;100.00
57050;BME280;42935;50.966;16.992;2023-05-25T03:42:08;102239.60;;;6.42;100.00
57050;BME280;42935;50.966;16.992;2023-05-25T03:45:20;102242.48;;;6.53;100.00
57050;BME280;42935;50.966;16.992;2023-05-25T03:49:08;102245.66;;;6.77;100.00
57050;BME280;42935;50.966;16.992;2023-05-25T03:52:33;102240.18;;;6.86;100.00
57050;BME280;42935;50.966;16.992;2023-05-25T03:55:50;102198.30;;;6.71;100.00
57050;BME280;42935;50.966;16.992;2023-05-25T03:59:08;102249.16;;;7.00;100.00
57050;BME280;42935;50.966;16.992;2023-05-25T04:02:21;102250.53;;;6.97;100.00
57050;BME280;42935;50.966;16.992;2023-05-25T04:05:37;102206.96;;;6.87;100.00
57050;BME280;42935;50.966;16.992;2023-05-25T04:08:58;102251.17;;;7.17;100.00
57050;BME280;42935;50.966;16.992;2023-05-25T04:12:16;102254.93;;;7.26;100.00
57050;BME280;42935;50.966;16.992;2023-05-25T04:15:33;102258.14;;;7.31;100.00
57050;BME280;42935;50.966;16.992;2023-05-25T04:18:51;102259.50;;;7.42;100.00
57050;BME280;42935;50.966;16.992;2023-05-25T04:22:06;102271.88;;;7.52;100.00
57050;BME280;42935;50.966;16.992;2023-05-25T04:25:23;102263.42;;;7.64;100.00
57050;BME280;42935;50.966;16.992;2023-05-25T04:28:41;102269.29;;;7.74;100.00
57050;BME280;42935;50.966;16.992;2023-05-25T04:31:57;102271.24;;;7.69;100.00
57050;BME280;42935;50.966;16.992;2023-05-25T04:35:12;102267.52;;;7.81;100.00
57050;BME280;42935;50.966;16.992;2023-05-25T04:38:39;102282.22;;;7.93;100.00
57050;BME280;42935;50.966;16.992;2023-05-25T04:42:01;102280.45;;;7.84;100.00
57050;BME280;42935;50.966;16.992;2023-05-25T04:45:20;102281.06;;;7.87;100.00
57050;BME280;42935;50.966;16.992;2023-05-25T04:49:11;102272.40;;;8.00;100.00
57050;BME280;42935;50.966;16.992;2023-05-25T04:52:32;102279.41;;;8.14;100.00
57050;BME280;42935;50.966;16.992;2023-05-25T04:55:53;102282.38;;;8.19;100.00
57050;BME280;42935;50.966;16.992;2023-05-25T04:59:12;102282.18;;;8.17;100.00
57050;BME280;42935;50.966;16.992;2023-05-25T05:02:38;102274.71;;;8.25;100.00
57050;BME280;42935;50.966;16.992;2023-05-25T05:05:54;102273.70;;;8.31;100.00
57050;BME280;42935;50.966;16.992;2023-05-25T05:09:12;102284.80;;;8.58;100.00
57050;BME280;42935;50.966;16.992;2023-05-25T05:12:34;102285.30;;;8.72;100.00
57050;BME280;42935;50.966;16.992;2023-05-25T05:15:52;102283.87;;;8.94;100.00
57050;BME280;42935;50.966;16.992;2023-05-25T05:19:39;102287.99;;;8.87;100.00
57050;BME280;42935;50.966;16.992;2023-05-25T05:23:00;102291.13;;;8.85;100.00
57050;BME280;42935;50.966;16.992;2023-05-25T05:26:17;102296.68;;;8.81;100.00
57050;BME280;42935;50.966;16.992;2023-05-25T05:30:07;102295.46;;;8.82;100.00
57050;BME280;42935;50.966;16.992;2023-05-25T05:33:24;102295.07;;;8.69;100.00
57050;BME280;42935;50.966;16.992;2023-05-25T05:36:41;102297.95;;;8.90;100.00
57050;BME280;42935;50.966;16.992;2023-05-25T05:39:55;102297.43;;;9.07;100.00
57050;BME280;42935;50.966;16.992;2023-05-25T05:43:12;102299.16;;;9.29;100.00
57050;BME280;42935;50.966;16.992;2023-05-25T05:46:38;102296.36;;;9.35;100.00
57050;BME280;42935;50.966;16.992;2023-05-25T05:49:51;102290.70;;;9.63;100.00
57050;BME280;42935;50.966;16.992;2023-05-25T05:53:13;102296.39;;;9.70;100.00
57050;BME280;42935;50.966;16.992;2023-05-25T05:56:37;102291.29;;;9.86;100.00
57050;BME280;42935;50.966;16.992;2023-05-25T05:59:57;102293.37;;;10.12;100.00
57050;BME280;42935;50.966;16.992;2023-05-25T06:03:18;102295.87;;;10.12;100.00
57050;BME280;42935;50.966;16.992;2023-05-25T06:06:36;102290.56;;;10.12;100.00
57050;BME280;42935;50.966;16.992;2023-05-25T06:09:58;102295.10;;;10.13;100.00
57050;BME280;42935;50.966;16.992;2023-05-25T06:13:20;102294.86;;;10.47;100.00
57050;BME280;42935;50.966;16.992;2023-05-25T06:16:37;102285.98;;;10.53;100.00
57050;BME280;42935;50.966;16.992;2023-05-25T06:19:58;102306.73;;;10.43;100.00
57050;BME280;42935;50.966;16.992;2023-05-25T06:23:16;102307.02;;;10.30;100.00
57050;BME280;42935;50.966;16.992;2023-05-25T06:26:40;102312.73;;;10.78;100.00
57050;BME280;42935;50.966;16.992;2023-05-25T06:29:55;102303.25;;;10.74;100.00
57050;BME280;42935;50.966;16.992;2023-05-25T06:33:22;102306.05;;;10.82;100.00
57050;BME280;42935;50.966;16.992;2023-05-25T06:36:38;102302.83;;;10.88;100.00
57050;BME280;42935;50.966;16.992;2023-05-25T06:39:53;102302.52;;;10.68;100.00
57050;BME280;42935;50.966;16.992;2023-05-25T06:43:10;102306.99;;;10.78;100.00
57050;BME280;42935;50.966;16.992;2023-05-25T06:46:28;102307.66;;;10.81;100.00
57050;BME280;42935;50.966;16.992;2023-05-25T06:49:46;102298.77;;;10.98;100.00
57050;BME280;42935;50.966;16.992;2023-05-25T06:53:11;102297.80;;;10.82;100.00
57050;BME280;42935;50.966;16.992;2023-05-25T06:56:26;102294.35;;;11.13;100.00
57050;BME280;42935;50.966;16.992;2023-05-25T06:59:43;102295.57;;;11.38;100.00
57050;BME280;42935;50.966;16.992;2023-05-25T07:04:16;102296.26;;;11.27;100.00
57050;BME280;42935;50.966;16.992;2023-05-25T07:07:32;102291.60;;;11.59;100.00
57050;BME280;42935;50.966;16.992;2023-05-25T07:10:50;102292.21;;;11.74;100.00
57050;BME280;42935;50.966;16.992;2023-05-25T07:14:38;102283.28;;;11.99;100.00
57050;BME280;42935;50.966;16.992;2023-05-25T07:17:59;102288.91;;;11.88;100.00
57050;BME280;42935;50.966;16.992;2023-05-25T07:21:17;102290.00;;;12.01;100.00
57050;BME280;42935;50.966;16.992;2023-05-25T07:24:42;102286.52;;;12.42;100.00
57050;BME280;42935;50.966;16.992;2023-05-25T07:28:03;102293.45;;;12.63;100.00
57050;BME280;42935;50.966;16.992;2023-05-25T07:31:21;102299.16;;;12.49;100.00
57050;BME280;42935;50.966;16.992;2023-05-25T07:34:41;102294.87;;;12.77;100.00
57050;BME280;42935;50.966;16.992;2023-05-25T07:38:03;102286.94;;;12.61;100.00
57050;BME280;42935;50.966;16.992;2023-05-25T07:41:20;102295.22;;;12.89;100.00
57050;BME280;42935;50.966;16.992;2023-05-25T07:44:37;102298.97;;;12.39;100.00
57050;BME280;42935;50.966;16.992;2023-05-25T07:47:52;102295.33;;;12.63;100.00
57050;BME280;42935;50.966;16.992;2023-05-25T07:51:12;102293.08;;;12.73;100.00
57050;BME280;42935;50.966;16.992;2023-05-25T07:54:27;102284.45;;;12.84;100.00
57050;BME280;42935;50.966;16.992;2023-05-25T07:57:42;102293.29;;;13.04;100.00
57050;BME280;42935;50.966;16.992;2023-05-25T08:00:55;102295.41;;;13.31;100.00
57050;BME280;42935;50.966;16.992;2023-05-25T08:05:00;102291.78;;;13.33;100.00
57050;BME280;42935;50.966;16.992;2023-05-25T08:08:27;102299.67;;;13.39;100.00
57050;BME280;42935;50.966;16.992;2023-05-25T08:11:47;102295.66;;;13.45;100.00
57050;BME280;42935;50.966;16.992;2023-05-25T08:15:06;102301.55;;;13.45;100.00
57050;BME280;42935;50.966;16.992;2023-05-25T08:18:24;102305.09;;;13.52;100.00
57050;BME280;42935;50.966;16.992;2023-05-25T08:21:46;102295.92;;;13.55;100.00
57050;BME280;42935;50.966;16.992;2023-05-25T08:25:10;102292.53;;;13.83;100.00
57050;BME280;42935;50.966;16.992;2023-05-25T08:28:28;102299.14;;;14.10;100.00
57050;BME280;42935;50.966;16.992;2023-05-25T08:31:48;102294.21;;;14.13;100.00
57050;BME280;42935;50.966;16.992;2023-05-25T08:35:06;102289.46;;;14.20;99.80
57050;BME280;42935;50.966;16.992;2023-05-25T08:38:24;102290.37;;;14.23;100.00
57050;BME280;42935;50.966;16.992;2023-05-25T08:41:45;102289.58;;;13.99;100.00
57050;BME280;42935;50.966;16.992;2023-05-25T08:45:04;102278.85;;;14.16;100.00
57050;BME280;42935;50.966;16.992;2023-05-25T08:48:23;102287.72;;;14.19;98.90
57050;BME280;42935;50.966;16.992;2023-05-25T08:51:49;102296.41;;;14.37;97.46
57050;BME280;42935;50.966;16.992;2023-05-25T08:55:08;102282.62;;;14.57;95.41
57050;BME280;42935;50.966;16.992;2023-05-25T08:58:33;102292.63;;;14.69;91.80
57050;BME280;42935;50.966;16.992;2023-05-25T09:02:03;102300.28;;;14.67;92.53
57050;BME280;42935;50.966;16.992;2023-05-25T09:05:26;102301.53;;;14.75;91.94
57050;BME280;42935;50.966;16.992;2023-05-25T09:08:51;102305.15;;;14.77;91.43
57050;BME280;42935;50.966;16.992;2023-05-25T09:12:09;102313.50;;;14.07;96.01
57050;BME280;42935;50.966;16.992;2023-05-25T09:15:26;102304.05;;;14.26;98.32
57050;BME280;42935;50.966;16.992;2023-05-25T09:18:42;102314.34;;;14.29;97.47
57050;BME280;42935;50.966;16.992;2023-05-25T09:22:03;102319.59;;;14.67;90.33
57050;BME280;42935;50.966;16.992;2023-05-25T09:25:23;102316.20;;;14.90;88.05
57050;BME280;42935;50.966;16.992;2023-05-25T09:28:46;102311.37;;;14.59;88.96
57050;BME280;42935;50.966;16.992;2023-05-25T09:32:06;102319.04;;;14.55;89.92
57050;BME280;42935;50.966;16.992;2023-05-25T09:35:21;102315.13;;;14.97;88.08
57050;BME280;42935;50.966;16.992;2023-05-25T09:38:40;102312.27;;;14.88;88.58
57050;BME280;42935;50.966;16.992;2023-05-25T09:42:01;102320.67;;;14.65;89.02
57050;BME280;42935;50.966;16.992;2023-05-25T09:45:14;102320.52;;;14.65;88.76
57050;BME280;42935;50.966;16.992;2023-05-25T09:48:35;102288.91;;;14.81;87.84
57050;BME280;42935;50.966;16.992;2023-05-25T09:51:53;102310.65;;;14.71;89.16
57050;BME280;42935;50.966;16.992;2023-05-25T09:55:21;102307.77;;;15.07;88.08
57050;BME280;42935;50.966;16.992;2023-05-25T09:58:38;102300.71;;;15.02;87.67
57050;BME280;42935;50.966;16.992;2023-05-25T10:01:57;102296.91;;;15.00;84.83
57050;BME280;42935;50.966;16.992;2023-05-25T10:05:15;102307.07;;;15.33;87.52
57050;BME280;42935;50.966;16.992;2023-05-25T10:08:31;102307.60;;;15.50;85.45
57050;BME280;42935;50.966;16.992;2023-05-25T10:11:53;102308.02;;;15.46;85.25
57050;BME280;42935;50.966;16.992;2023-05-25T10:15:16;102311.57;;;15.85;82.17
57050;BME280;42935;50.966;16.992;2023-05-25T10:18:41;102313.94;;;15.65;82.39
57050;BME280;42935;50.966;16.992;2023-05-25T10:22:07;102313.04;;;15.74;84.91
57050;BME280;42935;50.966;16.992;2023-05-25T10:28:55;102317.20;;;16.07;79.28
57050;BME280;42935;50.966;16.992;2023-05-25T10:32:18;102317.68;;;15.69;80.34
57050;BME280;42935;50.966;16.992;2023-05-25T10:35:39;102316.84;;;15.36;83.58
57050;BME280;42935;50.966;16.992;2023-05-25T10:38:54;102313.24;;;15.31;86.07
57050;BME280;42935;50.966;16.992;2023-05-25T10:42:12;102311.51;;;15.53;86.22
57050;BME280;42935;50.966;16.992;2023-05-25T10:45:25;102311.11;;;16.19;83.79
57050;BME280;42935;50.966;16.992;2023-05-25T10:48:49;102261.72;;;16.26;78.48
57050;BME280;42935;50.966;16.992;2023-05-25T10:52:17;102301.94;;;16.67;77.85
57050;BME280;42935;50.966;16.992;2023-05-25T10:59:04;102304.09;;;16.11;79.03
57050;BME280;42935;50.966;16.992;2023-05-25T11:02:21;102294.46;;;16.26;81.17
57050;BME280;42935;50.966;16.992;2023-05-25T11:05:49;102295.50;;;16.41;80.37
57050;BME280;42935;50.966;16.992;2023-05-25T11:09:07;102291.31;;;16.59;78.39
57050;BME280;42935;50.966;16.992;2023-05-25T11:12:29;102292.70;;;16.76;77.41
57050;BME280;42935;50.966;16.992;2023-05-25T11:19:16;102280.32;;;17.67;73.83
57050;BME280;42935;50.966;16.992;2023-05-25T11:22:33;102278.90;;;17.65;75.18
57050;BME280;42935;50.966;16.992;2023-05-25T11:26:03;102280.82;;;17.63;72.81
57050;BME280;42935;50.966;16.992;2023-05-25T11:29:23;102273.66;;;16.93;73.75
57050;BME280;42935;50.966;16.992;2023-05-25T11:32:49;102274.27;;;17.49;73.09
57050;BME280;42935;50.966;16.992;2023-05-25T11:36:05;102267.91;;;18.39;72.15
57050;BME280;42935;50.966;16.992;2023-05-25T11:39:24;102248.28;;;18.38;69.72
57050;BME280;42935;50.966;16.992;2023-05-25T11:42:39;102262.06;;;19.49;71.04
57050;BME280;42935;50.966;16.992;2023-05-25T11:45:56;102254.38;;;19.75;67.67
57050;BME280;42935;50.966;16.992;2023-05-25T11:49:20;102246.16;;;19.33;65.76
57050;BME280;42935;50.966;16.992;2023-05-25T11:52:34;102253.77;;;19.01;65.59
57050;BME280;42935;50.966;16.992;2023-05-25T11:55:51;102254.70;;;18.66;67.43
57050;BME280;42935;50.966;16.992;2023-05-25T11:59:07;102245.88;;;18.99;68.86
57050;BME280;42935;50.966;16.992;2023-05-25T12:02:23;102245.73;;;18.58;69.95
57050;BME280;42935;50.966;16.992;2023-05-25T12:05:38;102241.00;;;18.88;69.15
57050;BME280;42935;50.966;16.992;2023-05-25T12:09:10;102238.27;;;19.24;66.32
57050;BME280;42935;50.966;16.992;2023-05-25T12:12:39;102238.40;;;19.04;68.26
57050;BME280;42935;50.966;16.992;2023-05-25T12:15:56;102239.09;;;18.73;68.34
57050;BME280;42935;50.966;16.992;2023-05-25T12:19:11;102236.84;;;19.14;67.08
57050;BME280;42935;50.966;16.992;2023-05-25T12:22:29;102230.02;;;19.05;68.55
57050;BME280;42935;50.966;16.992;2023-05-25T12:25:45;102217.43;;;19.05;69.11
57050;BME280;42935;50.966;16.992;2023-05-25T12:29:04;102223.80;;;19.58;65.47
57050;BME280;42935;50.966;16.992;2023-05-25T12:32:25;102224.93;;;18.92;67.01
57050;BME280;42935;50.966;16.992;2023-05-25T12:35:47;102233.63;;;18.68;67.69
57050;BME280;42935;50.966;16.992;2023-05-25T12:39:02;102227.28;;;18.70;68.73
57050;BME280;42935;50.966;16.992;2023-05-25T12:42:20;102221.70;;;18.22;70.16
57050;BME280;42935;50.966;16.992;2023-05-25T12:45:42;102215.60;;;18.48;71.67
57050;BME280;42935;50.966;16.992;2023-05-25T12:48:56;102224.23;;;18.64;69.44
57050;BME280;42935;50.966;16.992;2023-05-25T12:55:41;102210.71;;;19.64;66.67
57050;BME280;42935;50.966;16.992;2023-05-25T13:02:24;102199.00;;;19.39;64.81
57050;BME280;42935;50.966;16.992;2023-05-25T13:05:41;102210.08;;;18.43;69.45
57050;BME280;42935;50.966;16.992;2023-05-25T13:08:58;102206.37;;;18.64;70.63
57050;BME280;42935;50.966;16.992;2023-05-25T13:12:13;102206.22;;;18.08;72.82
57050;BME280;42935;50.966;16.992;2023-05-25T13:15:32;102207.84;;;18.48;71.48
57050;BME280;42935;50.966;16.992;2023-05-25T13:18:50;102194.45;;;19.00;69.87
57050;BME280;42935;50.966;16.992;2023-05-25T13:22:10;102187.41;;;19.57;67.97
57050;BME280;42935;50.966;16.992;2023-05-25T13:25:34;102194.71;;;20.48;63.24
57050;BME280;42935;50.966;16.992;2023-05-25T13:28:52;102177.12;;;21.54;61.93
57050;BME280;42935;50.966;16.992;2023-05-25T13:32:10;102181.94;;;20.46;64.89
57050;BME280;42935;50.966;16.992;2023-05-25T13:35:27;102183.34;;;20.49;62.56
57050;BME280;42935;50.966;16.992;2023-05-25T13:38:58;102189.56;;;19.39;65.89
57050;BME280;42935;50.966;16.992;2023-05-25T13:42:15;102187.08;;;19.37;65.83
57050;BME280;42935;50.966;16.992;2023-05-25T13:45:33;102176.97;;;19.83;66.73
57050;BME280;42935;50.966;16.992;2023-05-25T13:48:50;102171.88;;;20.77;62.36
57050;BME280;42935;50.966;16.992;2023-05-25T13:52:04;102174.28;;;21.58;60.37
57050;BME280;42935;50.966;16.992;2023-05-25T13:55:20;102166.50;;;22.91;57.48
57050;BME280;42935;50.966;16.992;2023-05-25T13:58:43;102156.14;;;22.26;60.17
57050;BME280;42935;50.966;16.992;2023-05-25T14:01:57;102155.59;;;21.93;59.59
57050;BME280;42935;50.966;16.992;2023-05-25T14:05:11;102155.91;;;23.14;57.31
57050;BME280;42935;50.966;16.992;2023-05-25T14:08:28;102145.73;;;23.08;57.34
57050;BME280;42935;50.966;16.992;2023-05-25T14:11:47;102144.45;;;22.47;55.73
57050;BME280;42935;50.966;16.992;2023-05-25T14:15:00;102130.39;;;23.65;55.69
57050;BME280;42935;50.966;16.992;2023-05-25T14:18:19;102125.19;;;24.79;53.97
57050;BME280;42935;50.966;16.992;2023-05-25T14:21:32;102122.77;;;25.53;52.38
57050;BME280;42935;50.966;16.992;2023-05-25T14:24:49;102113.76;;;25.84;50.74
57050;BME280;42935;50.966;16.992;2023-05-25T14:28:02;102122.39;;;26.27;51.05
57050;BME280;42935;50.966;16.992;2023-05-25T14:31:25;102118.34;;;26.59;49.16
57050;BME280;42935;50.966;16.992;2023-05-25T14:34:43;102082.46;;;25.69;47.85
57050;BME280;42935;50.966;16.992;2023-05-25T14:39:39;102120.95;;;25.34;49.95
57050;BME280;42935;50.966;16.992;2023-05-25T14:42:54;102112.59;;;26.02;49.38
57050;BME280;42935;50.966;16.992;2023-05-25T14:46:12;102103.23;;;26.48;48.67
57050;BME280;42935;50.966;16.992;2023-05-25T14:49:33;102105.88;;;27.02;47.47
57050;BME280;42935;50.966;16.992;2023-05-25T14:52:50;102104.37;;;26.16;46.80
57050;BME280;42935;50.966;16.992;2023-05-25T14:56:49;102111.66;;;24.99;48.72
57050;BME280;42935;50.966;16.992;2023-05-25T15:00:06;102109.09;;;24.06;50.40
57050;BME280;42935;50.966;16.992;2023-05-25T15:03:19;102106.56;;;24.35;51.06
57050;BME280;42935;50.966;16.992;2023-05-25T15:06:36;102100.10;;;25.23;50.64
57050;BME280;42935;50.966;16.992;2023-05-25T15:09:52;102094.77;;;25.68;48.92
57050;BME280;42935;50.966;16.992;2023-05-25T15:13:10;102094.50;;;25.29;48.75
57050;BME280;42935;50.966;16.992;2023-05-25T15:16:23;102090.90;;;25.98;48.71
57050;BME280;42935;50.966;16.992;2023-05-25T15:19:41;102083.09;;;25.39;47.75
57050;BME280;42935;50.966;16.992;2023-05-25T15:22:59;102095.26;;;25.16;51.24
57050;BME280;42935;50.966;16.992;2023-05-25T15:26:14;102092.59;;;26.64;48.67
57050;BME280;42935;50.966;16.992;2023-05-25T15:29:27;102090.97;;;25.87;47.44
57050;BME280;42935;50.966;16.992;2023-05-25T15:32:42;102096.69;;;24.99;49.73
57050;BME280;42935;50.966;16.992;2023-05-25T15:35:59;102091.24;;;25.00;49.96
57050;BME280;42935;50.966;16.992;2023-05-25T15:39:16;102100.78;;;24.05;50.13
57050;BME280;42935;50.966;16.992;2023-05-25T15:42:37;102094.34;;;25.04;50.75
57050;BME280;42935;50.966;16.992;2023-05-25T15:45:52;102087.60;;;25.51;49.50
57050;BME280;42935;50.966;16.992;2023-05-25T15:49:11;102088.74;;;24.63;51.29
57050;BME280;42935;50.966;16.992;2023-05-25T15:52:28;102087.87;;;24.54;50.81
57050;BME280;42935;50.966;16.992;2023-05-25T15:55:43;102096.20;;;23.06;52.21
57050;BME280;42935;50.966;16.992;2023-05-25T15:59:00;102095.82;;;21.86;55.59
57050;BME280;42935;50.966;16.992;2023-05-25T16:02:15;102092.63;;;21.65;56.67
57050;BME280;42935;50.966;16.992;2023-05-25T16:05:56;102092.38;;;21.74;56.52
57050;BME280;42935;50.966;16.992;2023-05-25T16:09:09;102085.12;;;21.55;57.79
57050;BME280;42935;50.966;16.992;2023-05-25T16:12:25;102081.87;;;22.11;57.77
57050;BME280;42935;50.966;16.992;2023-05-25T16:15:47;102092.58;;;22.16;54.95
57050;BME280;42935;50.966;16.992;2023-05-25T16:19:04;102087.61;;;22.14;57.56
57050;BME280;42935;50.966;16.992;2023-05-25T16:22:20;102083.70;;;22.67;55.99
57050;BME280;42935;50.966;16.992;2023-05-25T16:25:40;102083.86;;;23.18;53.30
57050;BME280;42935;50.966;16.992;2023-05-25T16:28:55;102080.70;;;23.70;55.00
57050;BME280;42935;50.966;16.992;2023-05-25T16:32:10;102071.85;;;24.41;52.81
57050;BME280;42935;50.966;16.992;2023-05-25T16:35:26;102072.24;;;24.17;50.94
57050;BME280;42935;50.966;16.992;2023-05-25T16:38:43;102074.87;;;22.77;53.49
57050;BME280;42935;50.966;16.992;2023-05-25T16:42:01;102076.85;;;23.60;53.98
57050;BME280;42935;50.966;16.992;2023-05-25T16:45:14;102072.48;;;23.75;51.97
57050;BME280;42935;50.966;16.992;2023-05-25T16:48:35;102067.39;;;23.15;54.14
57050;BME280;42935;50.966;16.992;2023-05-25T16:51:51;102054.99;;;24.24;53.63
57050;BME280;42935;50.966;16.992;2023-05-25T16:55:09;102065.02;;;24.83;51.88
57050;BME280;42935;50.966;16.992;2023-05-25T16:58:24;102067.50;;;25.08;51.64
57050;BME280;42935;50.966;16.992;2023-05-25T17:01:44;102068.27;;;25.33;50.88
57050;BME280;42935;50.966;16.992;2023-05-25T17:05:02;102066.89;;;25.58;49.49
57050;BME280;42935;50.966;16.992;2023-05-25T17:08:17;102066.44;;;25.62;49.07
57050;BME280;42935;50.966;16.992;2023-05-25T17:11:30;102064.56;;;25.45;49.53
57050;BME280;42935;50.966;16.992;2023-05-25T17:14:53;102056.82;;;25.58;49.90
57050;BME280;42935;50.966;16.992;2023-05-25T17:18:10;102066.70;;;25.97;49.31
57050;BME280;42935;50.966;16.992;2023-05-25T17:21:30;102060.34;;;25.97;48.35
57050;BME280;42935;50.966;16.992;2023-05-25T17:24:47;102064.07;;;25.32;48.93
57050;BME280;42935;50.966;16.992;2023-05-25T17:28:00;102068.73;;;24.81;49.79
57050;BME280;42935;50.966;16.992;2023-05-25T17:31:18;102060.71;;;24.69;50.22